Adrian, Illinois
Current Conditions -  °F | °C
As of 8:15 AM on Saturday 25 Oct 2014 (Local Time) from KFSW Reporting Station
Haze Haze  
Wind Chill: 11°   Ceiling: 100
Heat Index: 11°   Visibility: 1.2mi
Dew Point: 11°   Wind: 3mph
Humidity: 100%   Direction: 240°WSW
Pressure: 30.03"   Gusts: NA
Location:  40.52°N, 91.17°W
Report Text: KFSW 251315Z AUTO 24003KT 1 1/4SM BR BKN001 11/11 A3003 RMK AO2
Loading
Personal Weather Stations






























Interactive Weather Map
Tropical Storm Tracking
New forecast layout! Learn more

10-Day Weather Forecast

Advertisements
Track Severe Weather on mobile